• Join FlightAware (Why Join?)
  • Login
  • US Flag 
08:48PM EST


 

Airport Tracker/Info


-or-


 

Live Flight TrackerFlight Track Log ✈ EJA605 ✈ 24-Feb-2014 ✈ KTYS - KTEB

Flight Track Log - Related Links

Times and Time Zones

All times are in EST time to prevent confusion due to time zone crossing. See the EJA605 flight status page for this flight to view local times or setup timezone preferences in your user account.

Time Position Orientation Groundspeed Altitude Reporting Facility
EST Latitude Longitude Course Direction KTS MPH feet Rate Location/Type
03:41PM 35.8683 -83.9208 50° Northeast 209 241 5,700  Level Atlanta Center
03:42PM 35.9164 -83.8489 50° Northeast 235 270 9,000 3,400 Climbing Atlanta Center
03:43PM 35.9683 -83.7744 49° Northeast 262 302 12,500 3,150 Climbing Atlanta Center
03:44PM 36.0286 -83.6894 49° Northeast 299 344 15,300 2,650 Climbing Atlanta Center
03:45PM 36.0950 -83.6019 47° Northeast 323 372 17,800 2,350 Climbing Atlanta Center
03:46PM 36.1697 -83.4908 50° Northeast 357 411 20,000 2,200 Climbing Atlanta Center
03:47PM 36.2422 -83.3850 50° Northeast 389 448 22,200 2,150 Climbing Atlanta Center
03:48PM 36.3186 -83.2761 49° Northeast 400 460 24,300 1,850 Climbing Atlanta Center
03:49PM 36.3972 -83.1669 48° Northeast 415 478 25,900 1,550 Climbing Atlanta Center
03:50PM 36.4778 -83.0497 49° Northeast 426 490 27,400 1,500 Climbing Atlanta Center
03:51PM 36.5581 -82.9325 50° Northeast 436 502 28,900 1,600 Climbing Atlanta Center
03:52PM 36.6422 -82.8125 49° Northeast 442 509 30,600 1,796 Climbing Atlanta Center
03:53PM 36.7475 -82.6614 49° Northeast 451 519 33,000 1,843 Climbing Indianapolis Center
03:54PM 36.8267 -82.5458 49° Northeast 448 516 34,900 1,680 Climbing Indianapolis Center
03:55PM 36.9044 -82.4317 50° Northeast 440 506 36,500 629 Climbing Indianapolis Center
03:56PM 36.9822 -82.3164 50° Northeast 433 498 36,200 -194 Descending Indianapolis Center
03:57PM 37.0783 -82.1769 49° Northeast 449 517 36,100 871 Descending Indianapolis Center
03:58PM 37.1597 -82.0600 49° Northeast 449 517 38,000 1,694 Climbing Indianapolis Center
03:59PM 37.2333 -81.9483 50° Northeast 423 487 39,600 968 Climbing Indianapolis Center
04:00PM 37.3072 -81.8378 50° Northeast 414 476 40,000 194 Climbing Indianapolis Center
04:01PM 37.3842 -81.7206 50° Northeast 428 493 40,000  Level Indianapolis Center
04:02PM 37.4806 -81.5761 50° Northeast 456 525 40,000  Level Indianapolis Center
04:03PM 37.5558 -81.4633 50° Northeast 470 541 40,000  Level Indianapolis Center
04:04PM 37.6597 -81.3092 50° Northeast 484 557 40,000  Level Indianapolis Center
04:05PM 37.7458 -81.1775 50° Northeast 492 566 40,000  Level Indianapolis Center
04:06PM 37.7881 -81.0108 72° East 526 605 40,000  Level Indianapolis Center
04:07PM 37.7997 -80.8319 85° East 526 605 40,000  Level Indianapolis Center
04:08PM 37.8128 -80.6089 86° East 526 605 40,000  Level Indianapolis Center
04:09PM 37.8217 -80.4711 85° East 521 600 40,000 -449 Level Washington Center
04:10PM 37.8353 -80.2853 85° East 521 600 39,200 -504 Descending Washington Center
04:11PM 37.8439 -80.1150 86° East 529 609 39,000 -99 Descending Washington Center
04:12PM 37.8569 -79.9317 85° East 529 609 39,000  Level Washington Center
04:13PM 37.8678 -79.7428 86° East 534 615 39,000  Level Washington Center
04:14PM 37.8803 -79.5594 85° East 534 615 39,000  Level Washington Center
04:15PM 37.8906 -79.3703 86° East 534 615 39,000  Level Washington Center
04:16PM 37.8983 -79.1839 87° East 534 615 39,000  Level Washington Center
04:17PM 37.9164 -78.9978 83° East 534 615 39,000  Level Washington Center
04:18PM 37.9406 -78.7989 81° East 534 615 39,000  Level Washington Center
04:19PM 37.9642 -78.6156 81° East 529 609 39,000  Level Washington Center
04:20PM 37.9539 -78.4333 94° East 512 589 39,000  Level Washington Center
04:21PM 37.9100 -78.2606 108° East 512 589 39,000  Level Washington Center
04:22PM 37.8597 -78.0825 110° East 519 597 39,000  Level Washington Center
04:23PM 37.8444 -77.9006 96° East 510 587 39,000  Level Washington Center
04:24PM 37.9081 -77.7394 63° Northeast 489 563 39,000  Level Washington Center
04:25PM 38.0039 -77.6156 46° Northeast 461 531 39,000  Level Washington Center
04:26PM 38.0911 -77.5097 44° Northeast 469 540 39,000  Level Washington Center
04:27PM 38.1911 -77.3883 44° Northeast 474 545 39,000 -814 Level Washington Center
04:28PM 38.2886 -77.2689 44° Northeast 480 552 37,400 -1,714 Descending Washington Center
04:29PM 38.3883 -77.1439 44° Northeast 467 537 35,600 -1,636 Descending Washington Center
04:30PM 38.4772 -77.0344 44° Northeast 455 524 34,100 -1,563 Descending Washington Center
04:31PM 38.5706 -76.9142 45° Northeast 455 524 32,500 -1,513 Descending Washington Center
04:32PM 38.6656 -76.7961 44° Northeast 460 529 31,100 -885 Descending Washington Center
04:33PM 38.7561 -76.6858 44° Northeast 455 524 30,700 -1,180 Descending Washington Center
04:34PM 38.8531 -76.5778 41° Northeast 455 524 28,700 -2,034 Descending Washington Center
04:35PM 38.9497 -76.4644 42° Northeast 455 524 26,700 -1,983 Descending Washington Center
04:36PM 39.0444 -76.3561 42° Northeast 455 524 24,800 -1,328 Descending Washington Center
04:37PM 39.1367 -76.2472 42° Northeast 455 524 24,000 -400 Descending Washington Center
04:38PM 39.2353 -76.1383 41° Northeast 455 524 24,000  Level Washington Center
04:39PM 39.3294 -76.0397 39° Northeast 449 517 24,000 -600 Level Washington Center
04:41PM 39.5333 -75.8500 36° Northeast 400 460 22,100 -1,737 Descending Philadelphia TRACON
04:42PM 39.6167 -75.7667 38° Northeast 398 458 18,500 -3,368 Descending Philadelphia TRACON
04:43PM 39.7000 -75.7000 32° Northeast 358 412 15,700 -2,817 Descending Philadelphia TRACON
04:44PM 39.7667 -75.6167 44° Northeast 327 376 13,100 -1,350 Descending Philadelphia TRACON
04:45PM 39.8500 -75.5500 32° Northeast 331 381 13,000 -48 Descending Philadelphia TRACON
04:46PM 39.9333 -75.4833 32° Northeast 335 386 13,000  Level Philadelphia TRACON
04:47PM 40.0000 -75.4000 44° Northeast 331 381 13,000  Level Philadelphia TRACON
04:48PM 40.0833 -75.3333 31° Northeast 301 346 13,000  Level Philadelphia TRACON
04:49PM 40.1500 -75.2833 30° Northeast 302 348 13,000 -500 Level Philadelphia TRACON
04:50PM 40.2167 -75.2167 37° Northeast 286 329 12,000 -1,250 Descending Philadelphia TRACON
04:51PM 40.2833 -75.1500 37° Northeast 289 333 10,500 -1,398 Descending Philadelphia TRACON
04:54PM 40.4333 -74.9500 57° Northeast 275 316 6,500 -1,373 Descending New York TRACON
04:55PM 40.4833 -74.8833 45° Northeast 270 311 5,100 -950 Descending New York TRACON
04:56PM 40.5333 -74.8167 45° Northeast 262 302 4,600 -550 Descending New York TRACON
04:57PM 40.5833 -74.7333 52° Northeast 262 302 4,000 -300 Descending New York TRACON
04:58PM 40.6500 -74.6833 30° Northeast 265 305 4,000  Level New York TRACON
04:59PM 40.7000 -74.6333 37° Northeast 254 292 4,000  Level New York TRACON
05:00PM 40.8326 -74.0849 57° Northeast  Level FlightAware Approximate
05:00PM 40.7500 -74.5833 37° Northeast 239 275 4,000  Level New York TRACON
05:01PM 40.8167 -74.5167 37° Northeast 239 275 4,000 -450 Level New York TRACON
05:02PM 40.8500 -74.4500 57° Northeast 243 280 3,100 -333 Descending New York TRACON
05:04PM 40.9333 -74.3167 62° Northeast 243 280 3,000 -25 Descending New York TRACON
05:06PM 40.9667 -74.1667 110° East 235 270 3,000 -267 Level New York TRACON
05:07PM 40.9333 -74.0833 118° Southeast 209 241 2,200 -750 Descending New York TRACON
05:08PM 40.9167 -74.0333 114° Southeast 168 193 1,500 -700 Descending New York TRACON
05:09PM 40.8833 -74.0167 159° South 139 160 800 -700 Descending New York TRACON
05:11PM 40.8500 -74.0500 191° South  Level FlightAware Approximate